Time;durP1;ratioP1;P1;durP2;ratioP2;P2;SDS_P1;SDS_P2;PMS_P1;PMS_P2;Temp;Humidity;BMP_temperature;BMP_pressure;BME280_temperature;BME280_humidity;BME280_pressure;Samples;Min_cycle;Max_cycle;Signal;HPM_P1;HPM_P2
2023/08/17 00:00:46;;;;;;;7.32;3.28;;;;;;;;;;5023930;28;20467;-76
2023/08/17 00:03:12;;;;;;;5.32;1.92;;;;;;;;;;5022286;28;20399;-76
2023/08/17 00:05:38;;;;;;;4.65;1.85;;;;;;;;;;5022518;28;20457;-76
2023/08/17 00:08:05;;;;;;;9.45;2.03;;;;;;;;;;5024901;28;20108;-76
2023/08/17 00:10:30;;;;;;;5.32;1.90;;;;;;;;;;5023798;28;20087;-76
2023/08/17 00:12:57;;;;;;;3.95;1.80;;;;;;;;;;5027264;28;20534;-76
2023/08/17 00:15:23;;;;;;;3.10;1.80;;;;;;;;;;5025084;28;20123;-76
2023/08/17 00:17:49;;;;;;;10.60;2.22;;;;;;;;;;5028196;28;20028;-76
2023/08/17 00:20:15;;;;;;;9.48;2.88;;;;;;;;;;5025198;28;20053;-76
2023/08/17 00:22:41;;;;;;;10.95;2.70;;;;;;;;;;5028227;28;20095;-75
2023/08/17 00:25:08;;;;;;;8.80;2.45;;;;;;;;;;5027768;28;20025;-75
2023/08/17 00:27:34;;;;;;;8.38;2.25;;;;;;;;;;5026343;28;20067;-75
2023/08/17 00:30:00;;;;;;;4.88;2.35;;;;;;;;;;5031172;28;20087;-75
2023/08/17 00:32:26;;;;;;;7.88;2.63;;;;;;;;;;5026844;28;20033;-75
2023/08/17 00:34:52;;;;;;;7.45;2.15;;;;;;;;;;5025491;28;20064;-75
2023/08/17 00:37:18;;;;;;;8.80;2.30;;;;;;;;;;5026836;28;20069;-75
2023/08/17 00:39:44;;;;;;;6.93;2.65;;;;;;;;;;5032808;28;20037;-75
2023/08/17 00:42:10;;;;;;;5.85;2.40;;;;;;;;;;5028888;28;20041;-75
2023/08/17 00:44:36;;;;;;;5.60;2.22;;;;;;;;;;5028173;28;20030;-75
2023/08/17 00:47:02;;;;;;;9.18;2.70;;;;;;;;;;5027237;28;20538;-75
2023/08/17 00:49:28;;;;;;;8.98;2.70;;;;;;;;;;5026769;28;20029;-75
2023/08/17 00:51:54;;;;;;;7.35;2.92;;;;;;;;;;5026353;28;20492;-75
2023/08/17 00:54:25;;;;;;;5.65;1.90;;;;;;;;;;5025122;28;20120;-75
2023/08/17 00:56:54;;;;;;;4.50;2.00;;;;;;;;;;5031439;28;20352;-75
2023/08/17 00:59:21;;;;;;;8.63;2.30;;;;;;;;;;5028047;28;20689;-75
2023/08/17 01:01:47;;;;;;;5.38;2.13;;;;;;;;;;5024536;28;20055;-75
2023/08/17 01:04:13;;;;;;;3.80;1.90;;;;;;;;;;5026998;28;20033;-74
2023/08/17 01:06:39;;;;;;;6.70;2.28;;;;;;;;;;5026713;28;20041;-74
2023/08/17 01:09:05;;;;;;;8.52;2.10;;;;;;;;;;5027329;28;20472;-75
2023/08/17 01:11:35;;;;;;;6.32;2.33;;;;;;;;;;5025577;28;20029;-75
2023/08/17 01:14:13;;;;;;;7.15;2.75;;;;;;;;;;5022176;28;20557;-77
2023/08/17 01:16:57;;;;;;;6.82;1.92;;;;;;;;;;5025937;28;20084;-76
2023/08/17 01:19:33;;;;;;;7.05;2.03;;;;;;;;;;5038162;28;20495;-75
2023/08/17 01:22:04;;;;;;;5.97;2.38;;;;;;;;;;5026840;28;20050;-76
2023/08/17 01:24:30;;;;;;;3.80;1.90;;;;;;;;;;5024402;28;20085;-75
2023/08/17 01:26:56;;;;;;;7.43;2.28;;;;;;;;;;5024161;28;20521;-77
2023/08/17 01:29:22;;;;;;;28.77;17.40;;;;;;;;;;5026171;28;20033;-76
2023/08/17 01:31:55;;;;;;;29.77;19.48;;;;;;;;;;5025379;28;20065;-75
2023/08/17 01:34:23;;;;;;;;;;;;;;;;;;5027970;28;20036;-75
2023/08/17 01:36:52;;;;;;;5.97;3.08;;;;;;;;;;5020691;28;19924;-75
2023/08/17 01:39:20;;;;;;;8.57;2.42;;;;;;;;;;5022994;28;20052;-76
2023/08/17 01:41:47;;;;;;;4.85;1.88;;;;;;;;;;5025178;28;20038;-75
2023/08/17 01:44:13;;;;;;;8.88;2.50;;;;;;;;;;5026285;28;20057;-76
2023/08/17 01:46:41;;;;;;;6.20;2.08;;;;;;;;;;5039106;28;20094;-75
2023/08/17 01:49:07;;;;;;;7.35;2.40;;;;;;;;;;5037811;28;20560;-74
2023/08/17 01:51:33;;;;;;;8.65;2.10;;;;;;;;;;5021310;28;20037;-76
2023/08/17 01:53:59;;;;;;;9.15;2.90;;;;;;;;;;5026237;28;20042;-76
2023/08/17 01:56:25;;;;;;;5.20;2.15;;;;;;;;;;5024245;28;20037;-76
2023/08/17 01:58:51;;;;;;;5.53;2.83;;;;;;;;;;5028543;28;20556;-75
2023/08/17 02:01:17;;;;;;;215.07;143.82;;;;;;;;;;5022515;28;20042;-80
2023/08/17 02:03:43;;;;;;;68.07;37.08;;;;;;;;;;5022355;28;20060;-87
2023/08/17 02:06:09;;;;;;;10.00;6.13;;;;;;;;;;5042134;28;20673;-76
2023/08/17 02:08:37;;;;;;;11.35;3.40;;;;;;;;;;5021888;28;20060;-77
2023/08/17 02:11:03;;;;;;;9.65;2.90;;;;;;;;;;5038973;28;20029;-75
2023/08/17 02:13:29;;;;;;;6.93;2.75;;;;;;;;;;5025121;28;20167;-77
2023/08/17 02:15:55;;;;;;;6.35;2.42;;;;;;;;;;5027599;28;20493;-77
2023/08/17 02:18:21;;;;;;;7.25;2.47;;;;;;;;;;5023612;28;20034;-75
2023/08/17 02:20:47;;;;;;;9.57;2.90;;;;;;;;;;5028055;28;20057;-75
2023/08/17 02:23:13;;;;;;;8.38;2.70;;;;;;;;;;5026494;28;20502;-74
2023/08/17 02:25:39;;;;;;;6.80;2.63;;;;;;;;;;5023525;28;20029;-76
2023/08/17 02:28:05;;;;;;;5.47;2.58;;;;;;;;;;5027294;28;20033;-74
2023/08/17 02:30:31;;;;;;;6.40;2.53;;;;;;;;;;5025041;28;20034;-74
2023/08/17 02:32:58;;;;;;;5.65;2.30;;;;;;;;;;5021385;28;20095;-74
2023/08/17 02:35:24;;;;;;;6.28;2.50;;;;;;;;;;5023255;28;20038;-74
2023/08/17 02:37:50;;;;;;;7.50;2.70;;;;;;;;;;5023800;28;20140;-75
2023/08/17 02:40:16;;;;;;;5.45;2.95;;;;;;;;;;5024102;28;20052;-75
2023/08/17 02:42:42;;;;;;;5.70;2.63;;;;;;;;;;5026631;28;20052;-75
2023/08/17 02:45:09;;;;;;;10.75;2.80;;;;;;;;;;5024937;28;20379;-75
2023/08/17 02:47:35;;;;;;;11.23;3.10;;;;;;;;;;5023982;28;20525;-75
2023/08/17 02:50:01;;;;;;;7.53;3.00;;;;;;;;;;5037078;28;20467;-74
2023/08/17 02:52:27;;;;;;;28.58;12.95;;;;;;;;;;5026942;28;20040;-76
2023/08/17 02:54:53;;;;;;;11.07;6.57;;;;;;;;;;5024038;28;20025;-77
2023/08/17 02:57:19;;;;;;;15.77;3.15;;;;;;;;;;5023792;28;20026;-74
2023/08/17 02:59:45;;;;;;;8.45;2.72;;;;;;;;;;5022231;28;20029;-74
2023/08/17 03:02:11;;;;;;;10.95;3.00;;;;;;;;;;5025889;28;20435;-74
2023/08/17 03:04:37;;;;;;;8.73;2.60;;;;;;;;;;5026130;28;20030;-73
2023/08/17 03:07:03;;;;;;;8.82;3.10;;;;;;;;;;5024559;28;20025;-74
2023/08/17 03:09:29;;;;;;;6.35;2.38;;;;;;;;;;5025337;28;20068;-75
2023/08/17 03:11:55;;;;;;;6.80;2.78;;;;;;;;;;5024159;28;20033;-75
2023/08/17 03:14:21;;;;;;;8.15;3.80;;;;;;;;;;5025459;28;20040;-75
2023/08/17 03:16:47;;;;;;;8.95;3.13;;;;;;;;;;5025297;28;20025;-74
2023/08/17 03:19:13;;;;;;;6.28;2.22;;;;;;;;;;5016874;28;20038;-75
2023/08/17 03:21:39;;;;;;;8.80;2.50;;;;;;;;;;5023570;28;20519;-74
2023/08/17 03:24:05;;;;;;;6.68;3.50;;;;;;;;;;5026324;28;20506;-74
2023/08/17 03:26:32;;;;;;;4.80;2.40;;;;;;;;;;5025754;28;20398;-74
2023/08/17 03:28:57;;;;;;;8.52;3.10;;;;;;;;;;5018405;28;20442;-74
2023/08/17 03:31:24;;;;;;;8.93;2.80;;;;;;;;;;5040261;28;20037;-74
2023/08/17 03:33:50;;;;;;;5.07;2.53;;;;;;;;;;5025163;28;20044;-74
2023/08/17 03:36:16;;;;;;;7.57;2.40;;;;;;;;;;5021157;28;20116;-74
2023/08/17 03:38:42;;;;;;;4.57;2.83;;;;;;;;;;5021612;28;20021;-74
2023/08/17 03:41:08;;;;;;;10.45;3.80;;;;;;;;;;5022883;28;20036;-74
2023/08/17 03:43:34;;;;;;;5.20;2.92;;;;;;;;;;5023748;28;20033;-74
2023/08/17 03:46:00;;;;;;;8.35;2.58;;;;;;;;;;5025484;28;20049;-74
2023/08/17 03:48:26;;;;;;;5.95;2.75;;;;;;;;;;5025083;28;20061;-74
2023/08/17 03:50:55;;;;;;;8.25;3.60;;;;;;;;;;5025388;28;20029;-75
2023/08/17 03:53:21;;;;;;;9.02;3.17;;;;;;;;;;5029196;28;20037;-74
2023/08/17 03:55:48;;;;;;;10.40;3.55;;;;;;;;;;5031247;28;20029;-74
2023/08/17 03:58:14;;;;;;;6.07;3.03;;;;;;;;;;5029018;28;20037;-75
2023/08/17 04:00:40;;;;;;;6.30;2.92;;;;;;;;;;5029399;28;20052;-75
2023/08/17 04:03:06;;;;;;;11.90;3.92;;;;;;;;;;5034374;28;21241;-75
2023/08/17 04:05:32;;;;;;;10.23;3.08;;;;;;;;;;5029505;28;20037;-75
2023/08/17 04:08:02;;;;;;;6.30;2.35;;;;;;;;;;5029071;28;20018;-75
2023/08/17 04:10:28;;;;;;;5.13;2.20;;;;;;;;;;5026061;28;20083;-75
2023/08/17 04:12:54;;;;;;;6.55;2.55;;;;;;;;;;5030596;28;20038;-75
2023/08/17 04:15:20;;;;;;;10.15;2.92;;;;;;;;;;5029637;28;20452;-75
2023/08/17 04:17:46;;;;;;;9.93;2.80;;;;;;;;;;5029726;28;20064;-74
2023/08/17 04:20:12;;;;;;;5.25;2.80;;;;;;;;;;5031543;28;20045;-74
2023/08/17 04:22:38;;;;;;;6.22;2.85;;;;;;;;;;5028760;28;20080;-74
2023/08/17 04:25:04;;;;;;;5.93;2.17;;;;;;;;;;5024312;28;20506;-73
2023/08/17 04:27:30;;;;;;;8.00;3.30;;;;;;;;;;5026342;28;20065;-74
2023/08/17 04:29:56;;;;;;;9.07;2.75;;;;;;;;;;5032318;28;20114;-75
2023/08/17 04:32:22;;;;;;;5.38;2.33;;;;;;;;;;5029193;28;20037;-75
2023/08/17 04:34:48;;;;;;;6.15;3.47;;;;;;;;;;5029178;28;20030;-75
2023/08/17 04:37:14;;;;;;;6.22;2.58;;;;;;;;;;5028725;28;20029;-75
2023/08/17 04:39:43;;;;;;;4.93;2.83;;;;;;;;;;5033266;28;20040;-74
2023/08/17 04:42:09;;;;;;;6.43;2.88;;;;;;;;;;5035127;28;20475;-74
2023/08/17 04:44:35;;;;;;;8.45;3.20;;;;;;;;;;5029189;28;20040;-75
2023/08/17 04:47:01;;;;;;;7.53;3.20;;;;;;;;;;5029810;28;20567;-74
2023/08/17 04:49:27;;;;;;;7.75;3.13;;;;;;;;;;5029452;28;20506;-74
2023/08/17 04:51:53;;;;;;;8.55;3.20;;;;;;;;;;5030272;28;20045;-74
2023/08/17 04:54:19;;;;;;;14.52;3.78;;;;;;;;;;5032026;28;20044;-74
2023/08/17 04:56:45;;;;;;;7.72;3.20;;;;;;;;;;5031203;28;20108;-75
2023/08/17 04:59:11;;;;;;;7.95;3.20;;;;;;;;;;5025041;28;20040;-75
2023/08/17 05:01:38;;;;;;;9.77;3.05;;;;;;;;;;5029177;28;20034;-74
2023/08/17 05:04:04;;;;;;;10.27;3.22;;;;;;;;;;5027650;28;20033;-74
2023/08/17 05:06:30;;;;;;;7.97;2.70;;;;;;;;;;5026858;28;20431;-75
2023/08/17 05:08:57;;;;;;;7.97;2.80;;;;;;;;;;5027567;28;20095;-75
2023/08/17 05:11:23;;;;;;;6.05;2.47;;;;;;;;;;5026213;28;20428;-75
2023/08/17 05:13:49;;;;;;;4.03;2.33;;;;;;;;;;5026852;28;20059;-75
2023/08/17 05:16:15;;;;;;;7.75;2.63;;;;;;;;;;5027860;28;20092;-75
2023/08/17 05:18:41;;;;;;;10.45;3.28;;;;;;;;;;5030242;28;20033;-74
2023/08/17 05:21:07;;;;;;;10.20;3.20;;;;;;;;;;5026174;28;20349;-75
2023/08/17 05:23:33;;;;;;;7.60;2.90;;;;;;;;;;5028376;28;20029;-75
2023/08/17 05:26:00;;;;;;;4.45;2.50;;;;;;;;;;5027078;28;20140;-75
2023/08/17 05:28:26;;;;;;;5.00;2.67;;;;;;;;;;5025112;28;20471;-75
2023/08/17 05:30:53;;;;;;;6.13;2.67;;;;;;;;;;5021856;28;20040;-75
2023/08/17 05:33:19;;;;;;;7.82;2.58;;;;;;;;;;5028371;28;20053;-75
2023/08/17 05:35:45;;;;;;;5.57;2.17;;;;;;;;;;5026446;28;20048;-75
2023/08/17 05:38:11;;;;;;;5.45;2.72;;;;;;;;;;5023390;28;20065;-75
2023/08/17 05:40:37;;;;;;;4.80;1.90;;;;;;;;;;5029252;28;20468;-75
2023/08/17 05:43:03;;;;;;;2.88;1.40;;;;;;;;;;5026957;28;20493;-75
2023/08/17 05:45:29;;;;;;;7.85;2.10;;;;;;;;;;5026631;28;20040;-75
2023/08/17 05:47:55;;;;;;;2.97;1.38;;;;;;;;;;5026926;28;20029;-75
2023/08/17 05:50:21;;;;;;;5.32;1.75;;;;;;;;;;5025144;28;20040;-75
2023/08/17 05:52:47;;;;;;;4.28;1.98;;;;;;;;;;5024787;28;20034;-75
2023/08/17 05:55:13;;;;;;;7.47;1.38;;;;;;;;;;5025335;28;20034;-75
2023/08/17 05:57:39;;;;;;;4.20;1.70;;;;;;;;;;5026314;28;20033;-76
2023/08/17 06:00:06;;;;;;;4.55;1.88;;;;;;;;;;5024508;28;20182;-75
2023/08/17 06:02:32;;;;;;;10.18;2.03;;;;;;;;;;5026790;28;20041;-76
2023/08/17 06:04:58;;;;;;;7.75;1.60;;;;;;;;;;5024700;28;20036;-76
2023/08/17 06:07:24;;;;;;;4.50;1.85;;;;;;;;;;5024431;28;20099;-76
2023/08/17 06:09:50;;;;;;;8.60;2.00;;;;;;;;;;5021489;28;20064;-76
2023/08/17 06:12:17;;;;;;;2.75;1.38;;;;;;;;;;5023289;28;20391;-75
2023/08/17 06:14:43;;;;;;;5.50;1.63;;;;;;;;;;5024370;28;20057;-74
2023/08/17 06:17:09;;;;;;;6.00;1.50;;;;;;;;;;5026723;28;20065;-75
2023/08/17 06:19:35;;;;;;;3.63;1.25;;;;;;;;;;5025169;28;20037;-74
2023/08/17 06:22:01;;;;;;;5.25;1.73;;;;;;;;;;5021952;28;20084;-74
2023/08/17 06:24:27;;;;;;;6.57;1.73;;;;;;;;;;5022902;28;20037;-74
2023/08/17 06:26:54;;;;;;;2.40;1.17;;;;;;;;;;5025946;28;20040;-74
2023/08/17 06:29:20;;;;;;;4.68;1.38;;;;;;;;;;5020816;28;20177;-75
2023/08/17 06:31:46;;;;;;;4.63;1.17;;;;;;;;;;5025311;28;20322;-74
2023/08/17 06:34:12;;;;;;;4.50;1.20;;;;;;;;;;5021136;28;20064;-75
2023/08/17 06:36:39;;;;;;;3.20;1.48;;;;;;;;;;5026614;28;20108;-74
2023/08/17 06:39:05;;;;;;;4.15;1.33;;;;;;;;;;5024729;28;20075;-74
2023/08/17 06:41:31;;;;;;;4.60;1.40;;;;;;;;;;5024898;28;20075;-74
2023/08/17 06:43:57;;;;;;;3.97;1.63;;;;;;;;;;5021424;28;20049;-74
2023/08/17 06:46:24;;;;;;;7.72;1.25;;;;;;;;;;5024229;28;20026;-74
2023/08/17 06:48:50;;;;;;;10.13;1.60;;;;;;;;;;5020042;28;20034;-75
2023/08/17 06:51:16;;;;;;;5.40;1.17;;;;;;;;;;5023394;28;20029;-80
2023/08/17 06:53:42;;;;;;;6.45;1.48;;;;;;;;;;5017871;28;20574;-78
2023/08/17 06:56:09;;;;;;;8.77;1.63;;;;;;;;;;5022984;28;20391;-77
2023/08/17 06:58:35;;;;;;;6.07;1.45;;;;;;;;;;5023332;28;20028;-77
2023/08/17 07:01:01;;;;;;;7.78;1.80;;;;;;;;;;5017498;28;20045;-75
2023/08/17 07:03:27;;;;;;;11.38;4.28;;;;;;;;;;5013265;28;20575;-75
2023/08/17 07:05:53;;;;;;;13.23;4.78;;;;;;;;;;5028766;28;20466;-75
2023/08/17 07:08:19;;;;;;;7.32;1.90;;;;;;;;;;5029591;28;20037;-75
2023/08/17 07:10:45;;;;;;;8.55;1.77;;;;;;;;;;5025331;28;20017;-75
2023/08/17 07:13:11;;;;;;;6.65;1.50;;;;;;;;;;5026488;28;20065;-75
2023/08/17 07:15:37;;;;;;;4.20;1.42;;;;;;;;;;5024920;28;20064;-74
2023/08/17 07:18:04;;;;;;;4.97;1.40;;;;;;;;;;5022978;28;20565;-75
2023/08/17 07:20:30;;;;;;;9.25;2.00;;;;;;;;;;5023146;28;20038;-77
2023/08/17 07:22:56;;;;;;;3.17;1.38;;;;;;;;;;5015170;28;20041;-75
2023/08/17 07:25:22;;;;;;;5.28;1.40;;;;;;;;;;5021536;28;20083;-76
2023/08/17 07:27:49;;;;;;;3.95;1.27;;;;;;;;;;5019782;28;20088;-76
2023/08/17 07:30:15;;;;;;;12.00;1.20;;;;;;;;;;5023189;28;20038;-74
2023/08/17 07:32:41;;;;;;;5.50;1.08;;;;;;;;;;5022908;28;20494;-74
2023/08/17 07:35:07;;;;;;;5.40;1.13;;;;;;;;;;5020980;28;20152;-72
2023/08/17 07:37:33;;;;;;;13.00;6.97;;;;;;;;;;5015798;28;20041;-73
2023/08/17 07:39:59;;;;;;;11.57;2.10;;;;;;;;;;5016830;28;20095;-73
2023/08/17 07:42:25;;;;;;;7.15;1.27;;;;;;;;;;5021052;28;20064;-73
2023/08/17 07:44:51;;;;;;;3.58;0.80;;;;;;;;;;5024844;28;20112;-74
2023/08/17 07:47:17;;;;;;;5.28;1.25;;;;;;;;;;5014677;28;20035;-73
2023/08/17 07:49:43;;;;;;;2.78;1.02;;;;;;;;;;5022333;28;20057;-74
2023/08/17 07:52:09;;;;;;;5.88;0.93;;;;;;;;;;5020612;28;20094;-74
2023/08/17 07:54:35;;;;;;;5.63;1.20;;;;;;;;;;5021892;28;20463;-75
2023/08/17 07:57:03;;;;;;;9.90;1.17;;;;;;;;;;5024118;28;20118;-77
2023/08/17 07:59:29;;;;;;;5.10;1.20;;;;;;;;;;5034797;28;20475;-77
2023/08/17 08:01:55;;;;;;;3.08;1.20;;;;;;;;;;5022818;28;20037;-75
2023/08/17 08:04:21;;;;;;;3.65;1.13;;;;;;;;;;5020370;28;20025;-74
2023/08/17 08:06:47;;;;;;;7.78;1.55;;;;;;;;;;5036660;28;20042;-74
2023/08/17 08:09:13;;;;;;;7.43;2.00;;;;;;;;;;5026932;28;20045;-76
2023/08/17 08:11:39;;;;;;;5.05;0.98;;;;;;;;;;5024105;28;20537;-75
2023/08/17 08:14:05;;;;;;;6.10;1.58;;;;;;;;;;5026579;28;20101;-76
2023/08/17 08:16:32;;;;;;;3.35;0.80;;;;;;;;;;5019158;28;20096;-75
2023/08/17 08:18:58;;;;;;;3.30;1.05;;;;;;;;;;5024889;28;20030;-74
2023/08/17 08:21:24;;;;;;;6.68;2.28;;;;;;;;;;5027122;28;20073;-73
2023/08/17 08:23:50;;;;;;;5.90;2.15;;;;;;;;;;5027747;28;20480;-73
2023/08/17 08:26:16;;;;;;;6.45;1.10;;;;;;;;;;5023914;28;20026;-76
2023/08/17 08:28:42;;;;;;;4.00;0.80;;;;;;;;;;5024851;28;20033;-77
2023/08/17 08:31:08;;;;;;;4.82;1.38;;;;;;;;;;5027639;28;20087;-77
2023/08/17 08:33:34;;;;;;;8.27;1.10;;;;;;;;;;5023744;28;20041;-76
2023/08/17 08:36:02;;;;;;;6.65;1.10;;;;;;;;;;5045587;28;20037;-77
2023/08/17 08:38:29;;;;;;;4.63;1.02;;;;;;;;;;5029487;28;20044;-76
2023/08/17 08:40:55;;;;;;;3.88;1.02;;;;;;;;;;5029438;28;20623;-77
2023/08/17 08:43:21;;;;;;;5.30;1.30;;;;;;;;;;5030222;28;20088;-76
2023/08/17 08:45:47;;;;;;;3.72;1.00;;;;;;;;;;5028423;28;20029;-75
2023/08/17 08:48:14;;;;;;;7.57;1.10;;;;;;;;;;5019196;28;20168;-77
2023/08/17 08:50:41;;;;;;;2.63;1.42;;;;;;;;;;5023309;28;20018;-76
2023/08/17 08:53:16;;;;;;;1.27;0.70;;;;;;;;;;5023034;28;20057;-78
2023/08/17 08:55:52;;;;;;;5.90;1.20;;;;;;;;;;5023246;28;20488;-79
2023/08/17 08:58:19;;;;;;;2.55;0.88;;;;;;;;;;5022080;28;20034;-74
2023/08/17 09:00:48;;;;;;;18.17;9.15;;;;;;;;;;5023479;28;20037;-74
2023/08/17 09:03:17;;;;;;;4.05;1.60;;;;;;;;;;5023671;28;20037;-74
2023/08/17 09:05:47;;;;;;;4.53;1.05;;;;;;;;;;5021323;28;20099;-75
2023/08/17 09:08:14;;;;;;;5.63;1.30;;;;;;;;;;5026581;28;20117;-75
2023/08/17 09:10:40;;;;;;;4.57;1.25;;;;;;;;;;5023951;28;20064;-74
2023/08/17 09:13:06;;;;;;;8.88;0.77;;;;;;;;;;5026762;28;20646;-74
2023/08/17 09:15:32;;;;;;;6.30;0.88;;;;;;;;;;5018824;28;20476;-73
2023/08/17 09:17:58;;;;;;;3.50;0.98;;;;;;;;;;5025963;28;20113;-74
2023/08/17 09:20:56;;;;;;;4.57;1.00;;;;;;;;;;5023762;28;20159;-73
2023/08/17 09:23:22;;;;;;;4.35;1.23;;;;;;;;;;5015989;28;20142;-74
2023/08/17 09:25:49;;;;;;;5.47;1.30;;;;;;;;;;5024627;28;20030;-75
2023/08/17 09:28:20;;;;;;;11.55;5.57;;;;;;;;;;5026124;28;20044;-74
2023/08/17 09:30:53;;;;;;;5.30;0.90;;;;;;;;;;5023736;28;20491;-75
2023/08/17 09:33:20;;;;;;;4.32;0.95;;;;;;;;;;5022075;28;20033;-76
2023/08/17 09:35:46;;;;;;;1.63;0.60;;;;;;;;;;5023986;28;20083;-76
2023/08/17 09:38:12;;;;;;;4.25;1.42;;;;;;;;;;5021475;28;20045;-76
2023/08/17 09:40:38;;;;;;;3.60;0.90;;;;;;;;;;5025055;28;20582;-74
2023/08/17 09:43:04;;;;;;;2.72;0.70;;;;;;;;;;5019210;28;20125;-73
2023/08/17 09:45:31;;;;;;;2.92;0.98;;;;;;;;;;5017301;28;20029;-75
2023/08/17 09:47:59;;;;;;;3.97;0.90;;;;;;;;;;5014111;28;20034;-75
2023/08/17 09:50:25;;;;;;;4.15;0.93;;;;;;;;;;5020595;28;20018;-74
2023/08/17 09:52:55;;;;;;;2.50;0.98;;;;;;;;;;5016638;28;20427;-76
2023/08/17 09:55:24;;;;;;;4.38;1.20;;;;;;;;;;5019807;28;20056;-75
2023/08/17 09:57:51;;;;;;;4.60;1.10;;;;;;;;;;5018932;28;20476;-77
2023/08/17 10:00:18;;;;;;;2.53;0.90;;;;;;;;;;5025367;28;20021;-77
2023/08/17 10:02:53;;;;;;;6.00;1.30;;;;;;;;;;5017863;28;20064;-74
2023/08/17 10:05:23;;;;;;;4.68;1.00;;;;;;;;;;5014886;28;20060;-76
2023/08/17 10:07:54;;;;;;;2.88;0.93;;;;;;;;;;5019801;28;20060;-79
2023/08/17 10:10:25;;;;;;;3.17;1.57;;;;;;;;;;5023333;28;20038;-78
2023/08/17 10:12:57;;;;;;;5.85;1.10;;;;;;;;;;5025528;28;20033;-77
2023/08/17 10:15:26;;;;;;;5.97;1.63;;;;;;;;;;5028589;28;20021;-76
2023/08/17 10:18:10;;;;;;;4.40;1.20;;;;;;;;;;5019644;28;20042;-76
2023/08/17 10:20:37;;;;;;;5.40;1.00;;;;;;;;;;5016421;28;20041;-76
2023/08/17 10:23:10;;;;;;;5.93;1.17;;;;;;;;;;5019172;28;20037;-77
2023/08/17 10:25:37;;;;;;;4.00;1.20;;;;;;;;;;5020683;28;20755;-73
2023/08/17 10:28:03;;;;;;;2.92;0.77;;;;;;;;;;5021077;28;20033;-77
2023/08/17 10:30:30;;;;;;;5.80;1.00;;;;;;;;;;5002852;28;20034;-76
2023/08/17 10:32:56;;;;;;;7.57;1.13;;;;;;;;;;5020434;28;20038;-76
2023/08/17 10:35:23;;;;;;;3.05;0.85;;;;;;;;;;5022447;28;20025;-77
2023/08/17 10:37:49;;;;;;;1.85;0.80;;;;;;;;;;5040865;28;20476;-75
2023/08/17 10:40:15;;;;;;;3.80;1.10;;;;;;;;;;5021324;28;20108;-75
2023/08/17 10:42:41;;;;;;;5.38;0.70;;;;;;;;;;5021662;28;20268;-75
2023/08/17 10:45:23;;;;;;;5.70;0.90;;;;;;;;;;5021134;28;20067;-77
2023/08/17 10:47:49;;;;;;;15.70;11.60;;;;;;;;;;5018885;28;20035;-75
2023/08/17 10:50:18;;;;;;;15.48;9.07;;;;;;;;;;5023395;28;20044;-75
2023/08/17 10:52:44;;;;;;;2.67;1.50;;;;;;;;;;5022755;28;20044;-75
2023/08/17 10:55:10;;;;;;;4.60;1.10;;;;;;;;;;5018249;28;20028;-77
2023/08/17 10:57:37;;;;;;;10.82;1.10;;;;;;;;;;5015021;28;20025;-78
2023/08/17 11:00:31;;;;;;;6.45;1.33;;;;;;;;;;5020019;28;20049;-80
2023/08/17 11:03:09;;;;;;;6.28;1.02;;;;;;;;;;5020980;28;20599;-79
2023/08/17 11:05:38;;;;;;;2.38;0.93;;;;;;;;;;5019718;28;20311;-76
2023/08/17 11:08:05;;;;;;;3.13;0.90;;;;;;;;;;5020915;28;20542;-78
2023/08/17 11:10:31;;;;;;;4.20;0.98;;;;;;;;;;5021847;28;20052;-77
2023/08/17 11:13:01;;;;;;;3.13;1.02;;;;;;;;;;5025522;28;20025;-79
2023/08/17 11:15:37;;;;;;;4.70;1.02;;;;;;;;;;5022725;28;20483;-75
2023/08/17 11:18:04;;;;;;;5.68;0.90;;;;;;;;;;5024362;28;20026;-75
2023/08/17 11:20:30;;;;;;;4.15;1.15;;;;;;;;;;5024136;28;20034;-75
2023/08/17 11:22:58;;;;;;;4.63;2.20;;;;;;;;;;5032032;28;20499;-74
2023/08/17 11:25:24;;;;;;;4.10;1.00;;;;;;;;;;5025893;28;20026;-77
2023/08/17 11:27:50;;;;;;;3.90;1.02;;;;;;;;;;5015189;28;20034;-74
2023/08/17 11:30:16;;;;;;;4.22;1.13;;;;;;;;;;5017019;28;20266;-73
2023/08/17 11:32:42;;;;;;;4.53;0.95;;;;;;;;;;5020200;28;20152;-73
2023/08/17 11:35:08;;;;;;;2.90;0.93;;;;;;;;;;5024174;28;20096;-73
2023/08/17 11:37:34;;;;;;;4.35;1.27;;;;;;;;;;5027419;28;20029;-73
2023/08/17 11:40:00;;;;;;;3.50;1.08;;;;;;;;;;5025889;28;20040;-73
2023/08/17 11:42:26;;;;;;;3.80;1.17;;;;;;;;;;5025391;28;20057;-73
2023/08/17 11:44:52;;;;;;;4.53;1.00;;;;;;;;;;5022742;28;20463;-73
2023/08/17 11:47:18;;;;;;;4.18;0.95;;;;;;;;;;5024171;28;20479;-72
2023/08/17 11:49:49;;;;;;;7.10;0.95;;;;;;;;;;5026656;28;20036;-73
2023/08/17 11:52:15;;;;;;;3.88;1.00;;;;;;;;;;5026943;28;20044;-74
2023/08/17 11:54:42;;;;;;;9.52;1.13;;;;;;;;;;5022366;28;20029;-77
2023/08/17 11:57:08;;;;;;;7.45;1.15;;;;;;;;;;5019838;28;20037;-80
2023/08/17 11:59:34;;;;;;;2.28;0.68;;;;;;;;;;5023999;28;21796;-81
2023/08/17 12:02:01;;;;;;;5.28;1.48;;;;;;;;;;5021628;28;20041;-78
2023/08/17 12:04:27;;;;;;;1.98;0.80;;;;;;;;;;5020266;28;20376;-79
2023/08/17 12:06:53;;;;;;;6.38;1.20;;;;;;;;;;5021979;28;22125;-85
2023/08/17 12:09:19;;;;;;;9.25;5.45;;;;;;;;;;5023223;28;20085;-78
2023/08/17 12:11:46;;;;;;;3.65;0.88;;;;;;;;;;5026016;28;20032;-82
2023/08/17 12:14:13;;;;;;;4.60;1.33;;;;;;;;;;5032039;28;20061;-82
2023/08/17 12:16:48;;;;;;;5.05;1.15;;;;;;;;;;5031936;28;20038;-82
2023/08/17 12:19:14;;;;;;;4.78;1.10;;;;;;;;;;5030327;28;20072;-83
2023/08/17 12:21:43;;;;;;;5.18;1.08;;;;;;;;;;5031598;28;20602;-83
2023/08/17 12:24:14;;;;;;;5.43;1.10;;;;;;;;;;5034064;28;20116;-82
2023/08/17 12:26:42;;;;;;;5.93;0.95;;;;;;;;;;5030764;28;20492;-83
2023/08/17 12:29:08;;;;;;;6.07;1.20;;;;;;;;;;5030043;28;20037;-83
2023/08/17 12:31:35;;;;;;;6.25;1.23;;;;;;;;;;5031392;28;20026;-83
2023/08/17 12:34:01;;;;;;;5.50;1.35;;;;;;;;;;5029699;28;20327;-83
2023/08/17 12:36:27;;;;;;;4.40;1.40;;;;;;;;;;5030046;28;20235;-82
2023/08/17 12:38:53;;;;;;;4.65;1.08;;;;;;;;;;5027852;28;20091;-83
2023/08/17 12:41:19;;;;;;;6.03;1.25;;;;;;;;;;5030628;28;20040;-83
2023/08/17 12:43:45;;;;;;;8.43;1.70;;;;;;;;;;5023909;28;20044;-76
2023/08/17 12:46:11;;;;;;;6.03;2.78;;;;;;;;;;5020544;28;20037;-77
2023/08/17 12:48:38;;;;;;;9.25;2.20;;;;;;;;;;5029219;28;20033;-76
2023/08/17 12:51:04;;;;;;;5.43;1.33;;;;;;;;;;5027198;28;20453;-75
2023/08/17 12:53:30;;;;;;;7.28;1.45;;;;;;;;;;5024857;28;20597;-76
2023/08/17 12:55:58;;;;;;;3.67;1.10;;;;;;;;;;5023815;28;20086;-79
2023/08/17 12:58:24;;;;;;;6.85;2.10;;;;;;;;;;5020957;28;20076;-78
2023/08/17 13:00:50;;;;;;;6.10;1.80;;;;;;;;;;5023493;28;20029;-77
2023/08/17 13:03:19;;;;;;;3.97;1.27;;;;;;;;;;5025049;28;20493;-80
2023/08/17 13:05:45;;;;;;;6.13;1.63;;;;;;;;;;5025984;28;20071;-80
2023/08/17 13:08:11;;;;;;;5.18;1.33;;;;;;;;;;5017490;28;20057;-79
2023/08/17 13:10:37;;;;;;;9.27;1.73;;;;;;;;;;5027047;28;20130;-76
2023/08/17 13:13:04;;;;;;;8.02;2.22;;;;;;;;;;5024126;28;20061;-79
2023/08/17 13:15:32;;;;;;;10.68;2.08;;;;;;;;;;5025428;28;20563;-87
2023/08/17 13:17:59;;;;;;;4.13;1.45;;;;;;;;;;5018750;28;20148;-78
2023/08/17 13:20:25;;;;;;;7.05;1.52;;;;;;;;;;5023585;28;20514;-75
2023/08/17 13:22:51;;;;;;;7.35;1.52;;;;;;;;;;5022180;28;20048;-83
2023/08/17 13:25:17;;;;;;;6.35;1.65;;;;;;;;;;5026650;28;20430;-81
2023/08/17 13:27:43;;;;;;;5.45;2.25;;;;;;;;;;5024915;28;20034;-77
2023/08/17 13:30:10;;;;;;;6.90;1.98;;;;;;;;;;5024658;28;20570;-78
2023/08/17 13:32:36;;;;;;;6.60;2.22;;;;;;;;;;5022773;28;20518;-78
2023/08/17 13:35:02;;;;;;;4.75;1.58;;;;;;;;;;5021272;28;20475;-78
2023/08/17 13:37:28;;;;;;;9.02;1.80;;;;;;;;;;5018852;28;20525;-77
2023/08/17 13:39:55;;;;;;;5.55;1.60;;;;;;;;;;5026265;28;20044;-76
2023/08/17 13:42:21;;;;;;;7.18;2.10;;;;;;;;;;5023185;28;20060;-77
2023/08/17 13:44:47;;;;;;;4.80;1.90;;;;;;;;;;5007486;28;20263;-80
2023/08/17 13:47:13;;;;;;;5.30;2.97;;;;;;;;;;5025316;28;20130;-79
2023/08/17 13:49:39;;;;;;;6.13;2.30;;;;;;;;;;5024259;28;20091;-80
2023/08/17 13:52:05;;;;;;;4.68;1.58;;;;;;;;;;5021405;28;20453;-80
2023/08/17 13:54:31;;;;;;;6.15;2.25;;;;;;;;;;5025167;28;20120;-81
2023/08/17 13:56:57;;;;;;;4.93;1.50;;;;;;;;;;5024450;28;20037;-79
2023/08/17 13:59:23;;;;;;;4.57;1.58;;;;;;;;;;5024352;28;20111;-78
2023/08/17 14:01:49;;;;;;;8.30;2.13;;;;;;;;;;5019486;28;20479;-76
2023/08/17 14:04:17;;;;;;;9.02;2.90;;;;;;;;;;5021044;28;20041;-76
2023/08/17 14:06:43;;;;;;;7.55;1.60;;;;;;;;;;5022126;28;20029;-81
2023/08/17 14:09:09;;;;;;;5.20;1.70;;;;;;;;;;5023642;28;20037;-76
2023/08/17 14:11:35;;;;;;;8.13;1.85;;;;;;;;;;5021275;28;20168;-78
2023/08/17 14:14:01;;;;;;;5.20;1.60;;;;;;;;;;5018818;28;20116;-78
2023/08/17 14:16:27;;;;;;;5.38;1.40;;;;;;;;;;5029991;28;20030;-81
2023/08/17 14:18:54;;;;;;;6.22;1.50;;;;;;;;;;5027693;28;20040;-77
2023/08/17 14:21:20;;;;;;;8.88;1.77;;;;;;;;;;5030891;28;20069;-78
2023/08/17 14:23:46;;;;;;;3.83;1.65;;;;;;;;;;5029059;28;22376;-76
2023/08/17 14:26:12;;;;;;;6.95;3.42;;;;;;;;;;5031618;28;20041;-76
2023/08/17 14:28:38;;;;;;;5.15;1.63;;;;;;;;;;5023971;28;20051;-80
2023/08/17 14:31:04;;;;;;;8.57;1.90;;;;;;;;;;5022659;28;20033;-73
2023/08/17 14:33:30;;;;;;;15.30;2.05;;;;;;;;;;5021410;28;20029;-74
2023/08/17 14:35:56;;;;;;;25.35;3.05;;;;;;;;;;5023751;28;20035;-75
2023/08/17 14:38:22;;;;;;;11.70;2.03;;;;;;;;;;5025411;28;20045;-76